Latest Weather Observations for Cummins Airport

IDS60801

Issued at 6:35 am CDT Wednesday 22 October 2014 (issued every 30 minutes, with the page automatically refreshed every 10 minutes)

About weather observations | Map of weather stations | Latest weather observations for SA | Other Formats
Station Details ID: 018217 Name: CUMMINS AERO Lat: -34.25 Lon: 135.71 Height: 60.11 m
Data from the previous 72 hours. | See also: Recent months at Cummins Airport
Date/Time
CDT
Temp
°C
App
Temp
°C
Dew
Point
Rel
Hum
%
Delta-T
°C
Wind Press
QNH
hPa
Press
MSL
hPa
Rain
since 9 am
mm
Dir
 
Spd
km/h
Gust
km/h
Spd
kts
Gust
kts
22/06:30am 14.4 11.8 13.8 96 0.3 SSW 20 26 11 14 1018.8 1018.7 0.0
22/06:00am 13.4 11.8 12.9 97 0.3 SSW 13 22 7 12 1018.5 1018.4 0.0
22/05:30am 13.4 11.4 12.8 96 0.3 SSW 15 20 8 11 1018.2 1018.1 0.0
22/05:00am 13.9 12.0 13.0 94 0.5 S 15 19 8 10 1018.1 1018.0 0.0
22/04:30am 14.1 12.5 12.8 92 0.7 SSW 13 20 7 11 1018.2 1018.1 0.0
22/04:00am 14.1 12.0 12.3 89 1.0 SSW 15 20 8 11 1018.0 1017.9 0.0
22/03:30am 14.1 11.9 12.0 87 1.1 SW 15 17 8 9 1017.6 1017.5 0.0
22/03:00am 14.1 12.0 11.3 83 1.5 S 13 15 7 8 1017.7 1017.6 0.0
22/02:30am 14.4 13.4 11.0 80 1.8 SW 7 9 4 5 1017.9 1017.8 0.0
22/02:00am 15.3 13.6 11.1 76 2.2 S 11 15 6 8 1017.9 1017.8 0.0
22/01:30am 16.1 13.3 11.5 74 2.5 S 17 20 9 11 1018.1 1018.0 0.0
22/01:00am 16.1 13.7 11.3 73 2.6 SSW 15 20 8 11 1018.1 1018.0 0.0
22/12:30am 16.8 13.9 11.1 69 3.1 SSW 17 20 9 11 1018.1 1018.0 0.0
22/12:00am 17.3 14.9 11.3 68 3.3 S 15 20 8 11 1018.1 1018.0 0.0
 
Date/Time
CDT
Temp
°C
App
Temp
°C
Dew
Point
Rel
Hum
%
Delta-T
°C
Wind Press
QNH
hPa
Press
MSL
hPa
Rain
since 9 am
mm
Dir
 
Spd
km/h
Gust
km/h
Spd
kts
Gust
kts
21/11:30pm 17.9 14.3 11.7 67 3.4 SSW 22 30 12 16 1017.9 1017.8 0.0
21/11:00pm 18.2 14.7 11.0 63 3.9 SSW 20 30 11 16 1017.8 1017.7 0.0
21/10:30pm 18.6 15.3 8.0 50 5.4 WSW 15 20 8 11 1017.5 1017.4 0.0
21/10:00pm 19.2 17.3 7.6 47 5.9 SSW 7 13 4 7 1017.2 1017.1 0.0
21/09:30pm 21.7 18.6 7.2 39 7.5 S 13 17 7 9 1016.7 1016.6 0.0
21/09:00pm 20.7 18.0 7.3 42 6.9 SSE 11 13 6 7 1016.8 1016.7 0.0
21/08:30pm 21.4 18.7 7.3 40 7.3 SSW 11 13 6 7 1016.2 1016.1 0.0
21/08:00pm 22.7 20.3 6.9 36 8.2 S 9 11 5 6 1015.5 1015.4 0.0
21/07:30pm 25.1 21.9 6.8 31 9.6 S 13 17 7 9 1015.1 1015.0 0.0
21/07:00pm 28.6 25.0 4.8 22 12.3 SW 13 19 7 10 1014.9 1014.8 0.0
21/06:30pm 30.6 25.8 4.4 19 13.6 WSW 19 28 10 15 1014.5 1014.4 0.0
21/06:00pm 31.2 24.2 4.1 18 14.0 W 30 39 16 21 1014.5 1014.4 0.0
21/05:30pm 34.8 29.0 0.0 11 17.2 N 20 26 11 14 1014.1 1014.0 0.0
21/05:00pm 33.9 28.8 0.5 12 16.5 NNE 17 26 9 14 1014.4 1014.3 0.0
21/04:30pm 33.2 29.3 1.1 13 16.0 NNE 11 20 6 11 1014.8 1014.7 0.0
21/04:00pm 32.9 26.3 -0.2 12 16.1 NW 24 35 13 19 1015.5 1015.4 0.0
21/03:30pm 32.8 28.6 1.8 14 15.6 NNW 13 19 7 10 1015.5 1015.4 0.0
21/03:00pm 33.7 29.1 1.5 13 16.2 N 15 24 8 13 1015.3 1015.2 0.0
21/02:30pm 33.6 28.1 0.3 12 16.4 N 19 26 10 14 1015.8 1015.7 0.0
21/02:00pm 33.4 28.8 1.3 13 16.1 N 15 20 8 11 1016.0 1015.9 0.0
21/01:30pm 32.4 26.9 0.5 13 15.6 NNW 19 26 10 14 1016.3 1016.2 0.0
21/01:00pm 32.6 26.0 -0.5 12 16.0 NW 24 35 13 19 1016.7 1016.6 0.0
21/12:30pm 32.7 27.4 -0.4 12 16.0 NW 17 28 9 15 1017.1 1017.0 0.0
21/12:00pm 31.7 25.9 -0.1 13 15.3 NNW 20 28 11 15 1017.6 1017.5 0.0
21/11:30am 31.4 26.7 0.7 14 15.0 NW 15 22 8 12 1017.6 1017.5 0.0
21/11:00am 30.7 26.0 1.1 15 14.5 NNW 15 22 8 12 1017.8 1017.7 0.0
21/10:30am 28.4 25.0 1.8 18 13.0 NW 9 13 5 7 1017.8 1017.7 0.0
21/10:00am 27.0 23.3 2.1 20 12.1 NNW 11 15 6 8 1017.7 1017.6 0.0
21/09:30am 27.5 22.9 1.8 19 12.5 NNW 15 24 8 13 1017.6 1017.5 0.0
21/09:00am 26.9 23.0 1.3 19 12.2 NNW 11 13 6 7 1017.4 1017.3 0.0
21/08:30am 25.5 19.7 0.2 19 11.7 NNE 20 28 11 15 1016.9 1016.8 0.0
21/08:00am 25.1 19.3 -0.1 19 11.6 NNE 20 26 11 14 1016.7 1016.6 0.0
21/07:30am 24.6 18.8 0.2 20 11.2 NNE 20 30 11 16 1016.5 1016.4 0.0
21/07:00am 23.7 18.2 0.7 22 10.6 NE 19 26 10 14 1016.2 1016.1 0.0
21/06:30am 21.5 16.9 1.7 27 9.2 NE 15 19 8 10 1015.9 1015.8 0.0
21/06:00am 21.6 17.2 2.8 29 8.9 NE 15 20 8 11 1015.6 1015.5 0.0
21/05:30am 21.3 17.4 3.5 31 8.5 NE 13 17 7 9 1015.3 1015.2 0.0
21/05:00am 21.8 17.5 3.5 30 8.8 NE 15 20 8 11 1015.2 1015.1 0.0
21/04:30am 21.8 17.3 4.4 32 8.5 NE 17 20 9 11 1015.1 1015.0 0.0
21/04:00am 22.2 17.8 4.7 32 8.6 NE 17 24 9 13 1015.3 1015.2 0.0
21/03:30am 22.8 17.6 5.7 33 8.6 ENE 22 33 12 18 1015.4 1015.3 0.0
21/03:00am 22.1 17.0 7.5 39 7.6 ENE 24 35 13 19 1015.4 1015.3 0.0
21/02:30am 22.9 17.1 7.8 38 7.9 ENE 28 37 15 20 1015.5 1015.4 0.0
21/02:00am 23.1 17.6 7.6 37 8.1 E 26 43 14 23 1015.8 1015.7 0.0
21/01:30am 22.7 17.4 8.4 40 7.6 E 26 35 14 19 1016.2 1016.1 0.0
21/01:00am 22.8 17.3 9.2 42 7.3 E 28 44 15 24 1016.4 1016.3 0.0
21/12:30am 22.7 17.7 9.5 43 7.1 E 26 37 14 20 1017.0 1016.9 0.0
21/12:00am 22.1 17.7 10.3 47 6.4 ENE 24 39 13 21 1017.4 1017.3 0.0
 
Date/Time
CDT
Temp
°C
App
Temp
°C
Dew
Point
Rel
Hum
%
Delta-T
°C
Wind Press
QNH
hPa
Press
MSL
hPa
Rain
since 9 am
mm
Dir
 
Spd
km/h
Gust
km/h
Spd
kts
Gust
kts
20/11:30pm 22.4 16.8 10.2 46 6.7 E 30 43 16 23 1017.5 1017.4 0.0
20/11:00pm 22.6 17.1 10.4 46 6.7 E 30 43 16 23 1017.7 1017.6 0.0
20/10:30pm 23.1 17.8 9.8 43 7.2 E 28 35 15 19 1018.0 1017.9 0.0
20/10:00pm 23.1 17.7 9.5 42 7.4 E 28 39 15 21 1018.1 1018.0 0.0
20/09:30pm 23.0 17.4 10.1 44 7.1 E 30 43 16 23 1018.1 1018.0 0.0
20/09:00pm 22.8 17.6 10.3 45 6.9 E 28 39 15 21 1018.1 1018.0 0.0
20/08:30pm 23.2 18.3 9.9 43 7.3 E 26 37 14 20 1017.9 1017.8 0.0
20/08:00pm 23.3 18.7 9.7 42 7.4 E 24 32 13 17 1017.6 1017.5 0.0
20/07:30pm 24.3 19.6 9.1 38 8.2 ESE 24 33 13 18 1017.3 1017.2 0.0
20/07:00pm 25.8 21.2 8.3 33 9.4 ESE 22 33 12 18 1017.3 1017.2 0.0
20/06:30pm 27.1 21.6 7.5 29 10.5 ESE 26 33 14 18 1017.0 1016.9 0.0
20/06:00pm 27.7 21.6 6.5 26 11.2 ESE 28 41 15 22 1017.1 1017.0 0.0
20/05:30pm 28.6 22.1 6.7 25 11.6 E 30 39 16 21 1017.3 1017.2 0.0
20/05:00pm 28.9 22.9 6.9 25 11.8 E 28 41 15 22 1017.4 1017.3 0.0
20/04:30pm 30.3 24.3 6.9 23 12.6 E 28 35 15 19 1017.3 1017.2 0.0
20/04:00pm 31.4 25.7 6.5 21 13.4 E 26 35 14 19 1017.6 1017.5 0.0
20/03:30pm 31.6 26.6 7.9 23 13.1 ESE 24 30 13 16 1017.9 1017.8 0.0
20/03:00pm 31.6 26.9 7.9 23 13.1 E 22 32 12 17 1018.4 1018.3 0.0
20/02:30pm 30.8 26.6 9.6 27 12.0 ESE 22 30 12 16 1018.9 1018.8 0.0
20/02:00pm 30.7 26.5 9.6 27 11.9 ESE 22 32 12 17 1019.3 1019.2 0.0
20/01:30pm 29.2 25.0 9.8 30 10.9 E 22 33 12 18 1019.6 1019.5 0.0
20/01:00pm 29.8 25.5 9.3 28 11.5 ESE 22 28 12 15 1020.0 1019.9 0.0
20/12:30pm 29.1 25.4 10.3 31 10.6 E 20 30 11 16 1020.5 1020.5 0.0
20/12:00pm 28.5 24.2 9.2 30 10.7 E 22 30 12 16 1021.0 1021.0 0.0
20/11:30am 27.7 23.1 9.5 32 10.1 E 24 33 13 18 1021.2 1021.2 0.0
20/11:00am 26.2 21.5 9.1 34 9.4 E 24 32 13 17 1021.5 1021.5 0.0
20/10:30am 24.5 20.1 10.4 41 7.8 E 24 33 13 18 1021.8 1021.8 0.0
20/10:00am 23.8 20.3 10.8 44 7.2 ESE 20 30 11 16 1022.0 1022.0 0.0
20/09:30am 21.5 17.6 10.9 51 5.8 ESE 22 32 12 17 1021.8 1021.8 0.0
20/09:00am 19.4 16.6 11.4 60 4.4 E 17 24 9 13 1021.7 1021.7 0.0
20/08:30am 18.3 16.5 12.1 67 3.4 E 13 24 7 13 1021.4 1021.4 0.0
20/08:00am 16.9 16.7 11.8 72 2.8 SE 4 11 2 6 1021.2 1021.2 0.0
20/07:30am 15.9 12.9 11.9 77 2.2 ESE 19 28 10 15 1020.8 1020.8 0.0
20/07:00am 15.3 11.7 11.9 80 1.8 ESE 22 33 12 18 1020.5 1020.5 0.0
20/06:30am 15.3 12.0 11.7 79 1.9 ESE 20 30 11 16 1020.4 1020.4 0.0
20/06:00am 15.4 13.7 11.2 76 2.2 SE 11 20 6 11 1020.4 1020.4 0.0
20/05:30am 15.5 13.1 11.3 76 2.3 SE 15 24 8 13 1020.4 1020.4 0.0
20/05:00am 15.5 13.4 11.1 75 2.4 SE 13 28 7 15 1020.5 1020.5 0.0
20/04:30am 15.3 12.2 11.5 78 2.0 ESE 19 28 10 15 1020.3 1020.2 0.0
20/04:00am 15.0 12.4 12.0 82 1.6 ESE 17 26 9 14 1020.3 1020.2 0.0
20/03:30am 15.0 11.9 12.3 84 1.5 SE 20 33 11 18 1020.5 1020.5 0.0
20/03:00am 14.9 12.6 11.7 81 1.7 SE 15 30 8 16 1020.6 1020.6 0.0
20/02:30am 15.0 12.7 11.6 80 1.8 SE 15 26 8 14 1020.4 1020.4 0.0
20/02:00am 15.1 13.1 11.5 79 1.9 SE 13 20 7 11 1020.6 1020.6 0.0
20/01:30am 15.2 11.2 11.8 80 1.8 ESE 24 33 13 18 1020.8 1020.8 0.0
20/01:00am 15.3 10.6 11.9 80 1.8 ESE 28 39 15 21 1020.8 1020.8 0.0
20/12:30am 15.4 12.2 12.0 80 1.8 ESE 20 35 11 19 1021.2 1021.2 0.0
20/12:00am 15.8 11.4 11.6 76 2.3 ESE 26 39 14 21 1021.3 1021.3 0.0
 
Date/Time
CDT
Temp
°C
App
Temp
°C
Dew
Point
Rel
Hum
%
Delta-T
°C
Wind Press
QNH
hPa
Press
MSL
hPa
Rain
since 9 am
mm
Dir
 
Spd
km/h
Gust
km/h
Spd
kts
Gust
kts
19/11:30pm 15.9 10.7 11.5 75 2.4 ESE 30 41 16 22 1021.3 1021.3 0.0
19/11:00pm 15.8 12.5 11.6 76 2.3 ESE 20 33 11 18 1021.5 1021.5 0.0
19/10:30pm 16.2 12.9 11.6 74 2.5 ESE 20 35 11 19 1021.8 1021.8 0.0
19/10:00pm 16.2 12.3 12.2 77 2.2 ESE 24 37 13 20 1021.4 1021.4 0.0
19/09:30pm 16.3 13.4 12.3 77 2.2 ESE 19 32 10 17 1021.4 1021.4 0.0
19/09:04pm 16.5 12.0 12.5 77 2.2 ESE 28 46 15 25 1021.5 1021.5 0.0
19/09:00pm 16.6 11.3 12.4 76 2.3 ESE 32 46 17 25 1021.5 1021.5 0.0
19/08:52pm 16.7 12.2 12.5 76 2.3 ESE 28 46 15 25 1021.3 1021.3 0.0
19/08:30pm 17.1 12.7 12.8 76 2.4 SE 28 41 15 22 1021.2 1021.2 0.0
19/08:00pm 17.8 12.7 13.1 74 2.6 ESE 32 43 17 23 1020.7 1020.7 0.0
19/07:30pm 18.8 13.8 13.4 71 3.1 ESE 32 41 17 22 1020.5 1020.5 0.0
19/07:00pm 19.7 14.2 13.6 68 3.5 SE 35 50 19 27 1020.2 1020.1 0.0
19/06:30pm 20.9 15.3 13.4 62 4.3 SE 35 52 19 28 1020.0 1019.9 0.0
19/06:27pm 20.8 15.6 13.3 62 4.3 SE 33 52 18 28 1019.9 1019.8 0.0
19/06:00pm 22.2 16.8 12.2 53 5.6 SE 32 43 17 23 1019.6 1019.5 0.0
19/05:30pm 22.9 17.9 12.2 51 6.1 SSE 30 41 16 22 1019.2 1019.1 0.0
19/05:00pm 25.8 20.9 12.6 44 7.7 SE 30 39 16 21 1018.9 1018.8 0.0
19/04:30pm 27.2 22.1 12.0 38 8.8 SSE 30 41 16 22 1018.7 1018.6 0.0
19/04:00pm 30.0 25.2 11.5 32 10.7 SSE 28 37 15 20 1018.5 1018.4 0.0
19/03:30pm 33.1 28.1 -1.3 11 16.4 SSW 15 22 8 12 1018.4 1018.3 0.0
19/03:00pm 32.6 28.5 -2.9 10 16.4 SSW 9 19 5 10 1018.7 1018.6 0.0
19/02:30pm 31.9 27.5 -2.2 11 15.9 SSW 11 19 6 10 1018.9 1018.8 0.0
19/02:00pm 31.8 28.3 -1.1 12 15.6 WSW 7 13 4 7 1019.2 1019.1 0.0
19/01:30pm 31.6 26.8 -0.1 13 15.3 W 15 24 8 13 1019.4 1019.3 0.0
19/01:00pm 30.8 26.1 -1.9 12 15.2 WSW 13 24 7 13 1019.5 1019.4 0.0
19/12:30pm 29.9 24.9 -1.5 13 14.6 W 15 24 8 13 1019.6 1019.5 0.0
19/12:00pm 29.8 25.0 0.4 15 14.1 W 15 22 8 12 1019.7 1019.6 0.0
19/11:30am 28.0 22.8 -0.1 16 13.2 W 17 26 9 14 1020.0 1019.9 0.0
19/11:00am 27.3 21.8 0.9 18 12.6 WSW 19 26 10 14 1020.4 1020.4 0.0
19/10:30am 25.6 20.8 0.3 19 11.8 W 15 20 8 11 1020.2 1020.1 0.0
19/10:00am 26.3 20.0 -0.7 17 12.4 W 22 26 12 14 1020.0 1019.9 0.0
19/09:30am 26.9 21.0 -1.9 15 13.0 NNW 19 28 10 15 1019.1 1019.0 0.0
19/09:00am 23.6 20.4 -0.6 20 10.9 NNW 6 11 3 6 1018.9 1018.8 0.0
19/08:30am 19.7 16.0 0.2 27 8.6 WNW 9 15 5 8 1018.6 1018.5 0.0
19/08:00am 17.6 12.7 -0.2 30 7.7 NNE 15 22 8 12 1018.1 1018.0 0.0
19/07:30am 12.8 8.4 0.5 43 5.1 NNE 13 15 7 8 1017.9 1017.8 0.0
19/07:00am 11.7 7.3 0.5 46 4.6 NNE 13 15 7 8 1017.5 1017.4 0.0

Other Formats:

Comma delimited format used in spreadsheet applications
http://www.bom.gov.au/fwo/IDS60801/IDS60801.95663.axf

JavaScript Object Notation format (JSON) in row-major order
http://www.bom.gov.au/fwo/IDS60801/IDS60801.95663.json